Time;durP1;ratioP1;P1;durP2;ratioP2;P2;SDS_P1;SDS_P2;PMS_P1;PMS_P2;Temp;Humidity;BMP_temperature;BMP_pressure;BME280_temperature;BME280_humidity;BME280_pressure;Samples;Min_cycle;Max_cycle;Signal;HPM_P1;HPM_P2
2023/09/20 00:00:19;;;;;;;0.73;0.73;;;;;;;19.82;64.49;100837.41;5064337;28;20073;-78
2023/09/20 00:02:49;;;;;;;;;;;;;;;19.91;63.97;100826.13;5077633;28;20082;-79
2023/09/20 00:05:18;;;;;;;0.10;0.10;;;;;;;19.86;64.25;100834.50;5065308;28;19956;-78
2023/09/20 00:07:44;;;;;;;0.17;0.17;;;;;;;19.72;64.52;100827.19;5069350;28;20489;-79
2023/09/20 00:10:12;;;;;;;0.10;0.10;;;;;;;19.77;64.48;100828.75;5066636;28;20118;-77
2023/09/20 00:12:40;;;;;;;0.63;0.63;;;;;;;19.61;65.00;100824.28;5060268;28;20025;-78
2023/09/20 00:15:07;;;;;;;0.00;0.00;;;;;;;19.62;64.93;100828.69;5070932;28;20038;-79
2023/09/20 00:17:37;;;;;;;0.20;0.20;;;;;;;19.69;64.86;100838.13;5077000;28;20047;-79
2023/09/20 00:20:06;;;;;;;0.15;0.15;;;;;;;19.61;64.95;100829.66;5068397;28;20464;-79
2023/09/20 00:22:32;;;;;;;0.30;0.30;;;;;;;19.61;65.30;100832.34;5074213;28;20043;-78
2023/09/20 00:24:59;;;;;;;0.25;0.25;;;;;;;19.62;65.14;100825.16;5066372;28;20033;-78
2023/09/20 00:27:25;;;;;;;0.40;0.40;;;;;;;19.63;65.08;100826.88;5072342;28;20024;-79
2023/09/20 00:29:53;;;;;;;0.55;0.55;;;;;;;19.39;65.79;100828.22;5066994;28;20108;-78
2023/09/20 00:32:19;;;;;;;0.00;0.00;;;;;;;19.37;65.88;100824.72;5070994;28;20040;-79
2023/09/20 00:34:45;;;;;;;0.15;0.15;;;;;;;19.44;65.59;100821.69;5074958;28;20051;-79
2023/09/20 00:37:11;;;;;;;0.10;0.10;;;;;;;19.55;65.36;100813.88;5071692;28;20102;-79
2023/09/20 00:39:38;;;;;;;0.00;0.00;;;;;;;19.44;65.65;100806.47;5070593;28;20029;-80
2023/09/20 00:42:04;;;;;;;0.10;0.10;;;;;;;19.51;65.18;100801.59;5071942;28;20069;-79
2023/09/20 00:44:31;;;;;;;0.13;0.13;;;;;;;19.39;65.59;100803.19;5068891;28;20035;-79
2023/09/20 00:46:58;;;;;;;0.10;0.10;;;;;;;19.24;66.00;100810.28;5063489;28;20025;-79
2023/09/20 00:49:24;;;;;;;0.20;0.20;;;;;;;19.30;66.04;100804.56;5068791;28;20029;-79
2023/09/20 00:51:51;;;;;;;0.32;0.25;;;;;;;19.34;65.80;100798.06;5068352;28;20032;-79
2023/09/20 00:54:17;;;;;;;0.38;0.38;;;;;;;19.34;65.97;100818.66;5069009;28;20075;-78
2023/09/20 00:56:44;;;;;;;0.32;0.32;;;;;;;19.26;66.20;100808.38;5070159;28;20051;-79
2023/09/20 00:59:11;;;;;;;0.10;0.10;;;;;;;19.31;66.02;100810.81;5069579;28;20099;-79
2023/09/20 01:01:40;;;;;;;0.20;0.20;;;;;;;19.19;66.09;100802.50;5069738;28;20035;-78
2023/09/20 01:04:08;;;;;;;0.10;0.10;;;;;;;19.26;65.91;100813.75;5071769;28;20024;-78
2023/09/20 01:06:36;;;;;;;0.30;0.30;;;;;;;19.31;65.80;100800.06;5061207;28;20639;-79
2023/09/20 01:09:03;;;;;;;0.10;0.10;;;;;;;19.34;65.86;100811.50;5069598;28;20039;-79
2023/09/20 01:11:30;;;;;;;0.10;0.10;;;;;;;19.43;65.61;100809.22;5062795;28;20020;-79
2023/09/20 01:13:59;;;;;;;0.10;0.10;;;;;;;19.34;65.98;100798.06;5071496;28;20028;-79
2023/09/20 01:16:25;;;;;;;0.10;0.10;;;;;;;19.32;65.63;100812.53;5072326;28;20067;-79
2023/09/20 01:18:51;;;;;;;1.45;0.90;;;;;;;19.32;65.89;100802.66;5073659;28;20077;-78
2023/09/20 01:21:17;;;;;;;0.10;0.10;;;;;;;19.35;65.55;100791.75;5071273;28;20024;-79
2023/09/20 01:23:43;;;;;;;0.10;0.10;;;;;;;19.37;65.50;100789.81;5076268;28;20088;-79
2023/09/20 01:26:11;;;;;;;0.10;0.10;;;;;;;19.42;65.26;100791.38;5077740;28;20029;-79
2023/09/20 01:28:37;;;;;;;0.20;0.20;;;;;;;19.49;65.11;100798.09;5079754;28;20040;-79
2023/09/20 01:31:05;;;;;;;0.10;0.10;;;;;;;19.54;65.15;100796.03;5079649;28;20025;-79
2023/09/20 01:33:32;;;;;;;0.10;0.10;;;;;;;19.66;64.72;100792.59;5079486;28;20024;-79
2023/09/20 01:35:58;;;;;;;0.47;0.47;;;;;;;19.61;64.70;100792.03;5078099;28;20051;-79
2023/09/20 01:38:26;;;;;;;0.13;0.13;;;;;;;19.71;64.55;100784.28;5078587;28;20032;-79
2023/09/20 01:40:55;;;;;;;0.10;0.10;;;;;;;19.71;64.60;100787.84;5077239;28;20020;-78
2023/09/20 01:43:22;;;;;;;0.00;0.00;;;;;;;19.65;64.70;100787.34;5074976;28;20104;-78
2023/09/20 01:45:48;;;;;;;0.28;0.28;;;;;;;19.72;64.23;100807.53;5075014;28;20051;-78
2023/09/20 01:48:15;;;;;;;0.55;0.55;;;;;;;19.66;64.38;100797.97;5071699;28;20036;-78
2023/09/20 01:50:41;;;;;;;0.10;0.10;;;;;;;19.79;64.28;100799.94;5068284;28;20043;-78
2023/09/20 01:53:10;;;;;;;0.03;0.03;;;;;;;19.77;64.31;100791.97;5071912;28;20024;-78
2023/09/20 01:55:37;;;;;;;0.20;0.20;;;;;;;19.71;64.14;100793.22;5066763;28;20044;-78
2023/09/20 01:58:06;;;;;;;0.68;0.68;;;;;;;19.77;64.05;100796.50;5072948;28;20500;-78
2023/09/20 02:00:39;;;;;;;0.10;0.10;;;;;;;19.64;64.20;100797.22;5065382;28;20502;-78
2023/09/20 02:03:11;;;;;;;0.30;0.30;;;;;;;19.67;64.08;100791.66;5073973;28;20036;-78
2023/09/20 02:05:38;;;;;;;0.10;0.10;;;;;;;19.75;63.83;100798.41;5069289;28;20037;-79
2023/09/20 02:08:04;;;;;;;0.10;0.10;;;;;;;19.68;63.74;100784.47;5077496;28;20039;-78
2023/09/20 02:10:31;;;;;;;0.00;0.00;;;;;;;19.69;63.89;100786.22;5074364;28;20068;-79
2023/09/20 02:12:58;;;;;;;0.55;0.55;;;;;;;19.57;64.07;100793.16;5071366;28;20070;-79
2023/09/20 02:15:26;;;;;;;0.10;0.10;;;;;;;19.50;64.18;100778.34;5067913;28;20552;-79
2023/09/20 02:17:53;;;;;;;0.10;0.10;;;;;;;19.59;63.78;100782.31;5074657;28;20441;-79
2023/09/20 02:20:23;;;;;;;0.13;0.13;;;;;;;19.37;64.42;100779.06;5074703;28;20028;-79
2023/09/20 02:22:51;;;;;;;0.10;0.10;;;;;;;19.38;64.33;100783.50;5071919;28;20593;-81
2023/09/20 02:25:20;;;;;;;0.52;0.52;;;;;;;19.35;64.33;100775.63;5080567;28;20033;-80
2023/09/20 02:27:48;;;;;;;0.52;0.52;;;;;;;19.28;64.41;100779.59;5080022;28;20036;-79
2023/09/20 02:30:16;;;;;;;0.10;0.10;;;;;;;19.29;64.51;100770.59;5079663;28;20040;-80
2023/09/20 02:32:43;;;;;;;0.10;0.10;;;;;;;19.33;64.62;100761.41;5078397;28;20036;-79
2023/09/20 02:35:10;;;;;;;0.10;0.10;;;;;;;19.41;64.39;100763.63;5081565;28;20052;-79
2023/09/20 02:37:37;;;;;;;0.30;0.30;;;;;;;19.36;64.17;100761.22;5073001;28;20043;-79
2023/09/20 02:40:07;;;;;;;0.10;0.10;;;;;;;19.30;64.28;100753.53;5075440;28;20027;-79
2023/09/20 02:42:42;;;;;;;3.25;1.02;;;;;;;19.35;64.18;100748.75;5082317;28;20119;-80
2023/09/20 02:45:09;;;;;;;0.03;0.03;;;;;;;19.29;64.47;100742.84;5075974;28;20047;-79
2023/09/20 02:47:35;;;;;;;0.98;0.98;;;;;;;19.15;64.59;100746.34;5074403;28;20029;-79
2023/09/20 02:50:04;;;;;;;0.10;0.10;;;;;;;19.13;64.86;100738.38;5077297;28;20071;-79
2023/09/20 02:52:34;;;;;;;0.00;0.00;;;;;;;19.24;64.38;100732.41;5079386;28;20024;-79
2023/09/20 02:55:00;;;;;;;0.25;0.25;;;;;;;19.14;64.80;100732.06;5079786;28;20052;-79
2023/09/20 02:57:29;;;;;;;0.30;0.30;;;;;;;19.22;64.72;100726.25;5082244;28;20029;-80
2023/09/20 02:59:57;;;;;;;1.40;0.88;;;;;;;19.23;64.68;100723.47;5073623;28;20092;-80
2023/09/20 03:02:24;;;;;;;0.10;0.10;;;;;;;19.21;64.54;100729.88;5073346;28;20104;-80
2023/09/20 03:04:53;;;;;;;0.00;0.00;;;;;;;19.23;64.71;100725.28;5082180;28;20099;-80
2023/09/20 03:07:21;;;;;;;0.10;0.10;;;;;;;19.16;65.12;100721.22;5080118;28;20085;-79
2023/09/20 03:09:47;;;;;;;0.28;0.28;;;;;;;19.19;64.51;100721.03;5084287;28;20024;-80
2023/09/20 03:12:13;;;;;;;0.00;0.00;;;;;;;19.40;64.23;100721.59;5079386;28;20407;-79
2023/09/20 03:14:39;;;;;;;0.13;0.13;;;;;;;19.24;64.53;100719.81;5078681;28;20051;-79
2023/09/20 03:17:06;;;;;;;0.10;0.10;;;;;;;19.23;64.74;100706.50;5077626;28;20029;-79
2023/09/20 03:19:33;;;;;;;0.10;0.10;;;;;;;19.23;64.69;100703.81;5079314;28;20078;-79
2023/09/20 03:21:59;;;;;;;0.30;0.30;;;;;;;19.31;64.61;100714.94;5082023;28;20528;-79
2023/09/20 03:24:26;;;;;;;0.10;0.10;;;;;;;19.33;64.43;100710.34;5080501;28;20016;-79
2023/09/20 03:26:54;;;;;;;0.10;0.10;;;;;;;19.22;64.84;100707.44;5084534;28;20453;-79
2023/09/20 03:29:20;;;;;;;0.38;0.38;;;;;;;19.27;64.47;100702.66;5083451;28;20035;-79
2023/09/20 03:31:48;;;;;;;0.10;0.10;;;;;;;19.27;64.71;100707.19;5083308;28;20032;-78
2023/09/20 03:34:14;;;;;;;0.10;0.10;;;;;;;19.33;64.30;100694.25;5083182;28;20513;-79
2023/09/20 03:36:41;;;;;;;0.10;0.10;;;;;;;19.30;64.30;100705.19;5083174;28;20206;-79
2023/09/20 03:39:11;;;;;;;0.10;0.10;;;;;;;19.29;64.51;100705.25;5083976;28;20612;-79
2023/09/20 03:41:38;;;;;;;0.00;0.00;;;;;;;19.27;64.66;100691.06;5086451;28;20024;-79
2023/09/20 03:44:05;;;;;;;0.10;0.10;;;;;;;19.30;64.57;100702.50;5086225;28;20021;-80
2023/09/20 03:46:32;;;;;;;0.10;0.10;;;;;;;19.35;64.60;100686.09;5086750;28;20055;-79
2023/09/20 03:48:59;;;;;;;1.27;1.27;;;;;;;19.27;64.64;100689.22;5085064;28;20029;-80
2023/09/20 03:51:25;;;;;;;0.10;0.10;;;;;;;19.25;64.61;100688.44;5085734;28;20039;-81
2023/09/20 03:53:51;;;;;;;1.10;0.57;;;;;;;19.29;64.67;100675.69;5084005;28;20028;-79
2023/09/20 03:56:17;;;;;;;2.10;1.23;;;;;;;19.16;64.78;100689.00;5079173;28;20062;-80
2023/09/20 03:58:43;;;;;;;0.22;0.22;;;;;;;19.25;64.76;100677.69;5079558;28;20063;-80
2023/09/20 04:01:10;;;;;;;0.10;0.10;;;;;;;19.25;64.73;100677.69;5074525;28;20024;-79
2023/09/20 04:03:36;;;;;;;0.28;0.28;;;;;;;19.30;64.69;100675.63;5074565;28;20036;-80
2023/09/20 04:06:02;;;;;;;0.15;0.15;;;;;;;19.30;64.67;100672.06;5077443;28;20537;-79
2023/09/20 04:08:28;;;;;;;0.93;0.93;;;;;;;19.34;64.49;100669.13;5078040;28;20040;-79
2023/09/20 04:10:56;;;;;;;0.10;0.10;;;;;;;19.43;64.00;100670.38;5076355;28;20378;-79
2023/09/20 04:13:24;;;;;;;0.03;0.03;;;;;;;19.24;64.68;100676.84;5076528;28;20036;-79
2023/09/20 04:15:50;;;;;;;0.68;0.68;;;;;;;19.12;65.06;100671.34;5073982;28;20078;-79
2023/09/20 04:18:16;;;;;;;0.00;0.00;;;;;;;19.17;64.93;100677.31;5072618;28;20047;-79
2023/09/20 04:20:46;;;;;;;1.35;1.25;;;;;;;19.06;65.54;100673.41;5077566;28;20516;-79
2023/09/20 04:23:12;;;;;;;0.05;0.05;;;;;;;19.19;65.09;100661.94;5077789;28;20507;-79
2023/09/20 04:25:38;;;;;;;0.10;0.10;;;;;;;19.27;64.69;100650.78;5074282;28;20436;-79
2023/09/20 04:28:05;;;;;;;0.10;0.10;;;;;;;19.16;65.13;100651.41;5073718;28;20056;-79
2023/09/20 04:30:31;;;;;;;0.10;0.10;;;;;;;19.16;64.97;100640.66;5073204;28;20394;-79
2023/09/20 04:32:57;;;;;;;0.00;0.00;;;;;;;19.08;65.17;100659.91;5073867;28;20025;-79
2023/09/20 04:35:23;;;;;;;0.00;0.00;;;;;;;19.16;64.93;100654.09;5076287;28;20062;-79
2023/09/20 04:37:49;;;;;;;0.05;0.05;;;;;;;19.11;65.05;100653.50;5078777;28;20116;-79
2023/09/20 04:40:15;;;;;;;0.10;0.10;;;;;;;19.06;65.10;100651.06;5079425;28;20032;-79
2023/09/20 04:42:41;;;;;;;0.17;0.17;;;;;;;19.06;65.18;100657.31;5074722;28;20029;-78
2023/09/20 04:45:12;;;;;;;0.93;0.85;;;;;;;19.00;65.07;100636.19;5071882;28;20513;-78
2023/09/20 04:47:38;;;;;;;0.00;0.00;;;;;;;19.03;65.03;100641.38;5076419;28;20028;-79
2023/09/20 04:50:05;;;;;;;0.10;0.10;;;;;;;19.06;65.14;100640.34;5078917;28;20031;-79
2023/09/20 04:52:31;;;;;;;0.10;0.10;;;;;;;19.03;65.03;100636.00;5080741;28;20490;-79
2023/09/20 04:54:57;;;;;;;0.10;0.10;;;;;;;18.99;65.13;100661.31;5078293;28;20081;-79
2023/09/20 04:57:24;;;;;;;0.10;0.10;;;;;;;18.96;65.16;100633.78;5078974;28;20035;-79
2023/09/20 04:59:50;;;;;;;0.70;0.70;;;;;;;18.92;65.36;100643.84;5080383;28;20521;-79
2023/09/20 05:02:16;;;;;;;0.20;0.20;;;;;;;18.91;65.30;100639.41;5078914;28;20028;-79
2023/09/20 05:04:42;;;;;;;0.10;0.10;;;;;;;18.96;65.15;100642.69;5074426;28;20020;-79
2023/09/20 05:07:09;;;;;;;1.17;1.08;;;;;;;18.97;65.18;100641.75;5075342;28;20033;-79
2023/09/20 05:09:36;;;;;;;0.20;0.20;;;;;;;18.99;65.17;100647.91;5073872;28;20035;-78
2023/09/20 05:12:04;;;;;;;0.10;0.10;;;;;;;18.82;65.38;100658.72;5069050;28;20031;-79
2023/09/20 05:14:30;;;;;;;0.00;0.00;;;;;;;18.79;65.50;100656.19;5076733;28;20316;-85
2023/09/20 05:16:56;;;;;;;0.10;0.10;;;;;;;18.89;65.41;100649.34;5073083;28;20032;-79
2023/09/20 05:19:23;;;;;;;0.00;0.00;;;;;;;18.90;65.42;100651.06;5079215;28;20027;-79
2023/09/20 05:21:49;;;;;;;1.13;1.08;;;;;;;18.87;65.51;100644.06;5079130;28;20032;-79
2023/09/20 05:24:15;;;;;;;0.10;0.10;;;;;;;18.81;65.65;100641.72;5079408;28;20036;-78
2023/09/20 05:26:44;;;;;;;0.85;0.85;;;;;;;18.86;65.54;100655.75;5076446;28;20050;-80
2023/09/20 05:29:11;;;;;;;0.70;0.70;;;;;;;18.78;65.73;100641.94;5069798;28;20050;-79
2023/09/20 05:31:37;;;;;;;0.32;0.32;;;;;;;18.84;65.56;100636.22;5076339;28;20024;-79
2023/09/20 05:34:05;;;;;;;4.47;1.45;;;;;;;19.01;65.24;100626.31;5075884;28;20021;-79
2023/09/20 05:36:31;;;;;;;0.10;0.10;;;;;;;18.95;65.51;100646.31;5081846;28;20051;-78
2023/09/20 05:38:57;;;;;;;0.10;0.10;;;;;;;18.96;65.58;100640.00;5075893;28;20029;-78
2023/09/20 05:41:25;;;;;;;0.45;0.45;;;;;;;19.02;65.50;100628.91;5066963;28;20040;-78
2023/09/20 05:43:53;;;;;;;1.70;0.98;;;;;;;18.91;65.55;100628.69;5073894;28;20025;-78
2023/09/20 05:46:19;;;;;;;0.10;0.10;;;;;;;18.83;65.70;100638.94;5067301;28;20031;-79
2023/09/20 05:48:46;;;;;;;0.08;0.08;;;;;;;18.99;65.48;100629.09;5075599;28;20020;-78
2023/09/20 05:51:14;;;;;;;0.35;0.35;;;;;;;18.93;65.55;100640.19;5080923;28;20051;-77
2023/09/20 05:53:42;;;;;;;0.47;0.47;;;;;;;18.88;65.63;100636.91;5074728;28;20032;-78
2023/09/20 05:56:10;;;;;;;0.10;0.10;;;;;;;18.96;65.41;100637.31;5069709;28;20051;-78
2023/09/20 05:58:40;;;;;;;0.10;0.10;;;;;;;19.08;65.25;100635.75;5066196;28;20119;-78
2023/09/20 06:01:09;;;;;;;1.95;1.85;;;;;;;19.04;65.17;100637.75;5069230;28;20028;-79
2023/09/20 06:03:36;;;;;;;0.00;0.00;;;;;;;19.07;65.22;100642.94;5061959;28;20032;-79
2023/09/20 06:06:04;;;;;;;0.10;0.10;;;;;;;19.08;65.44;100639.28;5066870;28;20033;-79
2023/09/20 06:08:30;;;;;;;0.10;0.10;;;;;;;19.20;65.00;100639.50;5069704;28;20029;-79
2023/09/20 06:10:57;;;;;;;0.63;0.63;;;;;;;19.08;65.39;100641.97;5075653;28;20408;-79
2023/09/20 06:13:23;;;;;;;0.20;0.20;;;;;;;19.12;65.20;100634.59;5074656;28;20021;-79
2023/09/20 06:15:50;;;;;;;0.10;0.10;;;;;;;19.07;65.24;100637.56;5072684;28;20410;-78
2023/09/20 06:18:17;;;;;;;0.10;0.10;;;;;;;19.16;65.32;100640.66;5074644;28;20064;-78
2023/09/20 06:20:48;;;;;;;0.10;0.10;;;;;;;19.23;65.21;100644.72;5068968;28;20044;-79
2023/09/20 06:23:14;;;;;;;0.10;0.10;;;;;;;19.26;65.23;100643.66;5067445;28;20025;-79
2023/09/20 06:25:41;;;;;;;0.10;0.10;;;;;;;19.29;65.24;100633.59;5075620;28;20039;-79
2023/09/20 06:28:09;;;;;;;0.10;0.10;;;;;;;19.43;64.81;100639.94;5068228;28;20032;-78
2023/09/20 06:30:35;;;;;;;0.00;0.00;;;;;;;19.29;65.04;100636.28;5075862;28;20052;-80
2023/09/20 06:33:02;;;;;;;0.10;0.10;;;;;;;19.46;64.65;100631.72;5081144;28;20063;-78
2023/09/20 06:35:28;;;;;;;0.30;0.30;;;;;;;19.37;64.92;100628.63;5082769;28;20028;-79
2023/09/20 06:37:58;;;;;;;0.10;0.10;;;;;;;19.38;65.08;100638.41;5083026;28;20025;-79
2023/09/20 06:40:33;;;;;;;0.65;0.65;;;;;;;19.43;64.90;100637.25;5074389;28;20020;-78
2023/09/20 06:43:01;;;;;;;0.00;0.00;;;;;;;19.45;64.82;100629.97;5061505;28;20035;-78
2023/09/20 06:45:27;;;;;;;0.00;0.00;;;;;;;19.28;64.98;100623.81;5067280;28;20526;-77
2023/09/20 06:47:55;;;;;;;0.30;0.30;;;;;;;19.36;65.01;100642.16;5074740;28;20028;-79
2023/09/20 06:50:21;;;;;;;0.10;0.10;;;;;;;19.44;64.77;100634.50;5076916;28;20033;-78
2023/09/20 06:52:48;;;;;;;1.00;1.00;;;;;;;19.48;64.51;100632.50;5070692;28;20036;-77
2023/09/20 06:55:17;;;;;;;0.35;0.35;;;;;;;19.54;64.46;100624.91;5056777;28;20421;-79
2023/09/20 06:57:43;;;;;;;2.10;1.85;;;;;;;19.54;64.55;100621.38;5068871;28;20033;-79
2023/09/20 07:00:25;;;;;;;0.30;0.30;;;;;;;19.63;64.61;100628.84;5069435;28;20029;-76
2023/09/20 07:02:52;;;;;;;;;;;;;;;19.71;64.22;100621.19;5069993;28;20081;-78
2023/09/20 07:05:18;;;;;;;0.10;0.10;;;;;;;19.57;64.76;100623.88;5059829;28;20401;-78
2023/09/20 07:07:47;;;;;;;0.10;0.10;;;;;;;19.66;64.62;100623.28;5066677;28;20025;-78
2023/09/20 07:10:15;;;;;;;0.10;0.10;;;;;;;19.61;64.57;100624.53;5064416;28;20560;-78
2023/09/20 07:12:42;;;;;;;0.05;0.05;;;;;;;19.74;64.34;100625.53;5061782;28;20039;-78
2023/09/20 07:15:09;;;;;;;0.15;0.15;;;;;;;19.77;64.39;100627.16;5069505;28;20066;-78
2023/09/20 07:17:35;;;;;;;0.10;0.10;;;;;;;19.63;64.37;100633.38;5059699;28;20032;-78
2023/09/20 07:20:08;;;;;;;0.43;0.43;;;;;;;19.49;64.93;100640.47;5069247;28;20024;-78
2023/09/20 07:22:38;;;;;;;0.10;0.10;;;;;;;19.65;64.72;100642.19;5068878;28;20062;-78
2023/09/20 07:25:06;;;;;;;0.57;0.57;;;;;;;19.54;64.64;100650.94;5069830;28;20040;-77
2023/09/20 07:27:32;;;;;;;0.10;0.10;;;;;;;19.66;64.74;100649.31;5067102;28;20028;-77
2023/09/20 07:29:59;;;;;;;0.55;0.55;;;;;;;19.76;64.55;100652.31;5055924;28;20481;-77
2023/09/20 07:32:26;;;;;;;0.47;0.47;;;;;;;19.78;64.41;100642.31;5062011;28;20497;-77
2023/09/20 07:34:59;;;;;;;0.20;0.20;;;;;;;19.55;64.64;100649.94;5054435;28;20039;-77
2023/09/20 07:37:25;;;;;;;0.10;0.10;;;;;;;19.68;64.38;100648.25;5064176;28;20063;-77
2023/09/20 07:39:52;;;;;;;0.03;0.03;;;;;;;19.78;64.10;100642.31;5058887;28;20407;-77
2023/09/20 07:42:20;;;;;;;0.10;0.10;;;;;;;19.84;63.78;100647.34;5063933;28;20025;-80
2023/09/20 07:44:46;;;;;;;0.10;0.10;;;;;;;19.86;63.79;100650.78;5060862;28;20025;-77
2023/09/20 07:47:13;;;;;;;0.20;0.20;;;;;;;19.80;64.02;100651.13;5064863;28;20075;-78
2023/09/20 07:49:39;;;;;;;0.10;0.10;;;;;;;19.80;64.11;100657.41;5065072;28;20032;-77
2023/09/20 07:52:09;;;;;;;0.10;0.10;;;;;;;19.82;64.08;100652.78;5064010;28;20135;-77
2023/09/20 07:54:35;;;;;;;0.00;0.00;;;;;;;19.78;64.19;100663.84;5066238;28;20032;-77
2023/09/20 07:57:01;;;;;;;0.10;0.10;;;;;;;19.68;64.33;100659.00;5066471;28;20040;-78
2023/09/20 07:59:27;;;;;;;5.68;0.90;;;;;;;19.61;64.20;100656.78;5056076;28;20483;-77
2023/09/20 08:01:54;;;;;;;0.13;0.13;;;;;;;19.77;64.15;100656.72;5056314;28;20393;-77
2023/09/20 08:04:21;;;;;;;0.20;0.20;;;;;;;19.75;64.22;100669.38;5060014;28;20021;-77
2023/09/20 08:06:48;;;;;;;0.20;0.20;;;;;;;19.72;64.60;100665.91;5065205;28;20107;-77
2023/09/20 08:09:14;;;;;;;0.00;0.00;;;;;;;19.75;64.43;100677.44;5070305;28;20029;-77
2023/09/20 08:11:40;;;;;;;0.00;0.00;;;;;;;19.76;64.31;100666.59;5070335;28;20040;-77
2023/09/20 08:14:06;;;;;;;0.00;0.00;;;;;;;19.76;64.31;100687.25;5072622;28;20036;-77
2023/09/20 08:16:34;;;;;;;0.68;0.68;;;;;;;19.82;64.28;100690.41;5071974;28;20033;-77
2023/09/20 08:19:02;;;;;;;0.10;0.10;;;;;;;19.82;64.10;100678.81;5060650;28;20025;-77
2023/09/20 08:21:32;;;;;;;0.20;0.20;;;;;;;19.68;64.31;100680.50;5063770;28;20074;-77
2023/09/20 09:00:20;;;;;;;0.10;0.10;;;;;;;20.11;63.47;100668.09;5122122;28;20042;-78
2023/09/20 09:02:51;;;;;;;0.10;0.10;;;;;;;20.11;63.23;100665.41;5120303;28;20019;-78
2023/09/20 09:05:20;;;;;;;0.20;0.20;;;;;;;20.09;63.44;100667.31;5123909;27;20056;-78
2023/09/20 09:07:47;;;;;;;0.47;0.47;;;;;;;20.07;63.64;100662.03;5122207;28;20037;-78
2023/09/20 09:10:13;;;;;;;0.10;0.10;;;;;;;20.18;63.07;100658.66;5127020;27;20122;-78
2023/09/20 09:12:41;;;;;;;0.10;0.10;;;;;;;20.12;63.38;100667.97;5128298;27;20015;-78
2023/09/20 09:15:11;;;;;;;0.30;0.30;;;;;;;20.23;63.02;100661.94;5127147;27;20111;-78
2023/09/20 09:17:41;;;;;;;0.17;0.17;;;;;;;20.33;62.96;100663.06;5117069;28;20107;-77
2023/09/20 09:20:10;;;;;;;0.38;0.38;;;;;;;20.34;62.94;100672.88;5124060;27;20069;-77
2023/09/20 09:22:38;;;;;;;0.73;0.73;;;;;;;20.28;62.87;100667.88;5115948;28;20023;-77
2023/09/20 09:25:11;;;;;;;0.10;0.10;;;;;;;20.42;62.65;100664.28;5117873;28;20031;-77
2023/09/20 09:27:39;;;;;;;0.10;0.10;;;;;;;20.33;62.80;100671.13;5120672;27;20020;-77
2023/09/20 09:30:09;;;;;;;0.35;0.35;;;;;;;20.40;62.79;100668.06;5115595;28;20031;-77
2023/09/20 09:32:36;;;;;;;0.10;0.10;;;;;;;20.44;62.53;100677.69;5121375;28;20032;-77
2023/09/20 09:35:05;;;;;;;0.10;0.10;;;;;;;20.32;63.02;100668.56;5118217;28;20028;-77
2023/09/20 09:37:35;;;;;;;1.33;1.20;;;;;;;20.32;62.88;100669.41;5122391;28;20028;-77
2023/09/20 09:40:03;;;;;;;0.10;0.10;;;;;;;20.45;62.68;100668.63;5119954;28;20023;-77
2023/09/20 09:42:30;;;;;;;0.10;0.10;;;;;;;20.30;62.81;100659.69;5122154;27;20034;-77
2023/09/20 09:44:56;;;;;;;0.10;0.10;;;;;;;20.28;63.21;100665.19;5111822;27;20566;-77
2023/09/20 09:47:24;;;;;;;0.10;0.10;;;;;;;20.28;62.84;100667.88;5118366;28;20043;-77
2023/09/20 09:49:52;;;;;;;0.50;0.50;;;;;;;20.42;62.60;100663.44;5117987;27;20066;-77
2023/09/20 09:52:28;;;;;;;0.10;0.10;;;;;;;20.37;62.99;100658.34;5119086;28;20112;-77
2023/09/20 09:54:55;;;;;;;2.65;0.60;;;;;;;20.55;62.61;100653.63;5112696;28;20110;-77
2023/09/20 09:57:23;;;;;;;0.10;0.10;;;;;;;20.56;62.43;100636.50;5116798;28;20035;-77
2023/09/20 09:59:51;;;;;;;1.00;1.00;;;;;;;20.63;62.38;100640.50;5110417;27;20502;-77
2023/09/20 10:02:19;;;;;;;0.63;0.63;;;;;;;20.81;62.23;100637.59;5107818;28;20034;-78
2023/09/20 10:05:08;;;;;;;0.28;0.28;;;;;;;20.83;62.03;100638.38;5099319;28;20032;-78
2023/09/20 10:07:38;;;;;;;0.08;0.08;;;;;;;20.95;61.95;100624.09;5095675;28;20031;-78
2023/09/20 10:10:16;;;;;;;0.30;0.30;;;;;;;20.89;61.43;100637.09;5094286;28;20024;-78
2023/09/20 10:12:45;;;;;;;0.20;0.20;;;;;;;20.85;60.88;100629.22;5099964;28;20072;-77
2023/09/20 10:15:14;;;;;;;0.35;0.35;;;;;;;20.88;61.50;100628.16;5105169;28;20489;-78
2023/09/20 10:17:45;;;;;;;0.05;0.05;;;;;;;20.86;61.57;100630.09;5093810;28;20028;-78
2023/09/20 10:20:15;;;;;;;0.17;0.17;;;;;;;20.99;60.85;100622.91;5092621;28;20358;-77
2023/09/20 10:22:45;;;;;;;0.10;0.10;;;;;;;21.00;61.05;100608.47;5092101;28;20016;-77
2023/09/20 10:25:30;;;;;;;0.10;0.10;;;;;;;21.25;60.74;100604.09;5090996;28;20028;-78
2023/09/20 10:27:56;;;;;;;0.10;0.10;;;;;;;21.23;60.81;100606.03;5093129;28;20032;-78
2023/09/20 10:30:22;;;;;;;0.10;0.10;;;;;;;21.38;60.37;100606.81;5093145;28;20089;-78
2023/09/20 10:35:30;;;;;;;0.20;0.20;;;;;;;21.54;59.87;100592.28;5076885;27;20389;-77
2023/09/20 10:38:01;;;;;;;0.22;0.22;;;;;;;21.57;59.62;100586.69;5074335;28;20029;-78
2023/09/20 10:46:19;;;;;;;0.10;0.10;;;;;;;21.69;58.46;100593.06;5098232;27;20388;-78
2023/09/20 10:48:49;;;;;;;0.10;0.10;;;;;;;21.74;58.55;100594.44;5095016;28;20025;-79
2023/09/20 10:51:39;;;;;;;0.32;0.22;;;;;;;21.85;58.19;100601.78;5096131;28;20035;-78
2023/09/20 10:57:03;;;;;;;0.20;0.20;;;;;;;21.81;58.46;100598.44;5096527;27;20407;-78
2023/09/20 10:59:31;;;;;;;0.10;0.10;;;;;;;22.01;58.24;100588.03;5098245;28;20036;-79
2023/09/20 11:02:09;;;;;;;0.40;0.40;;;;;;;22.18;57.81;100585.94;5093894;28;20021;-79
2023/09/20 11:04:36;;;;;;;0.00;0.00;;;;;;;22.19;57.69;100580.44;5078683;28;20088;-79
2023/09/20 11:07:04;;;;;;;0.17;0.17;;;;;;;22.20;57.49;100567.81;5085870;28;20024;-78
2023/09/20 11:09:33;;;;;;;0.10;0.10;;;;;;;22.24;57.45;100580.09;5092487;28;20051;-78
2023/09/20 11:12:06;;;;;;;1.30;1.20;;;;;;;22.41;56.03;100568.97;5095030;28;20028;-78
2023/09/20 11:14:35;;;;;;;0.40;0.40;;;;;;;22.55;55.68;100565.22;5082827;28;20024;-78
2023/09/20 11:17:02;;;;;;;0.03;0.03;;;;;;;22.67;55.67;100581.47;5097266;28;20450;-79
2023/09/20 11:19:29;;;;;;;0.10;0.10;;;;;;;22.88;55.08;100560.94;5098308;28;20024;-78
2023/09/20 11:21:57;;;;;;;0.35;0.35;;;;;;;22.83;55.03;100560.44;5092957;28;20036;-78
2023/09/20 11:24:25;;;;;;;0.00;0.00;;;;;;;23.13;54.55;100558.19;5085755;28;20033;-78
2023/09/20 11:26:54;;;;;;;0.10;0.10;;;;;;;23.15;53.88;100548.13;5083307;28;20065;-78
2023/09/20 11:29:20;;;;;;;0.55;0.55;;;;;;;23.05;53.21;100556.09;5091574;28;20031;-78
2023/09/20 11:31:48;;;;;;;12.65;0.65;;;;;;;23.06;53.04;100569.47;5092814;28;20035;-79
2023/09/20 11:34:14;;;;;;;0.20;0.20;;;;;;;23.08;53.04;100583.72;5092933;28;20302;-78
2023/09/20 11:36:43;;;;;;;0.32;0.32;;;;;;;22.99;52.77;100578.16;5092951;28;20027;-78
2023/09/20 11:39:09;;;;;;;0.40;0.40;;;;;;;22.99;52.92;100570.06;5094278;28;20033;-78
2023/09/20 11:41:36;;;;;;;0.30;0.22;;;;;;;22.94;53.03;100573.13;5096679;28;20028;-77
2023/09/20 11:44:02;;;;;;;0.00;0.00;;;;;;;22.83;53.61;100568.56;5093135;28;20021;-78
2023/09/20 11:46:34;;;;;;;0.52;0.52;;;;;;;22.81;53.64;100562.38;5094690;28;20486;-78
2023/09/20 11:49:02;;;;;;;0.65;0.65;;;;;;;22.76;54.04;100559.19;5094897;28;20033;-78
2023/09/20 11:51:31;;;;;;;0.05;0.05;;;;;;;22.93;52.87;100553.34;5095638;28;20029;-78
2023/09/20 11:53:59;;;;;;;0.75;0.75;;;;;;;23.24;52.67;100540.19;5094642;28;20043;-78
2023/09/20 11:56:29;;;;;;;0.00;0.00;;;;;;;23.27;52.40;100548.06;5094202;28;20026;-78
2023/09/20 11:58:59;;;;;;;0.65;0.65;;;;;;;23.47;51.88;100539.38;5095543;28;20040;-78
2023/09/20 12:01:29;;;;;;;0.10;0.10;;;;;;;23.68;51.10;100543.06;5095213;28;20024;-78
2023/09/20 12:03:56;;;;;;;0.00;0.00;;;;;;;23.65;50.84;100550.53;5096646;28;20054;-78
2023/09/20 12:06:24;;;;;;;0.10;0.10;;;;;;;23.85;51.47;100532.69;5089344;28;20071;-78
2023/09/20 12:08:53;;;;;;;0.20;0.20;;;;;;;23.89;50.56;100543.16;5072241;28;20787;-78
2023/09/20 12:11:20;;;;;;;0.28;0.28;;;;;;;23.87;50.58;100522.63;5083265;28;20034;-79
2023/09/20 12:13:47;;;;;;;0.40;0.40;;;;;;;24.00;49.91;100527.91;5082983;28;20028;-79
2023/09/20 12:16:14;;;;;;;0.10;0.10;;;;;;;24.16;50.10;100523.00;5082114;28;20032;-78